createdAt,value
2019-01-09T00:00:44.768Z,101020.18
2019-01-09T00:03:13.554Z,101010.66
2019-01-09T00:05:42.298Z,101011.95
2019-01-09T00:08:10.875Z,101017.59
2019-01-09T00:10:39.449Z,101011.09
2019-01-09T00:13:08.004Z,101011.45
2019-01-09T00:15:36.548Z,101009.25
2019-01-09T00:18:05.363Z,101013.52
2019-01-09T00:20:33.923Z,101004.80
2019-01-09T00:23:02.547Z,101011.28
2019-01-09T00:25:31.140Z,101014.31
2019-01-09T00:27:59.775Z,101007.86
2019-01-09T00:30:28.378Z,101004.41
2019-01-09T00:32:56.911Z,101002.21
2019-01-09T00:35:25.492Z,101006.87
2019-01-09T00:37:54.013Z,101005.13
2019-01-09T00:40:22.636Z,100999.95
2019-01-09T00:42:51.241Z,100993.85
2019-01-09T00:45:20.076Z,100991.68
2019-01-09T00:47:48.675Z,100997.25
2019-01-09T00:50:17.283Z,100995.07
2019-01-09T00:52:45.902Z,100996.81
2019-01-09T00:55:14.690Z,100992.50
2019-01-09T00:57:43.183Z,100998.59
2019-01-09T01:00:17.903Z,101004.23
2019-01-09T01:02:58.742Z,101007.26
2019-01-09T01:05:54.502Z,101002.98
2019-01-09T01:08:50.319Z,101003.89
2019-01-09T01:11:51.733Z,101004.78
2019-01-09T01:14:38.204Z,100999.17
2019-01-09T01:17:36.854Z,100996.55
2019-01-09T01:20:11.150Z,100994.78
2019-01-09T01:22:45.815Z,100999.04
2019-01-09T01:25:38.272Z,101003.32
2019-01-09T01:28:26.433Z,101004.16
2019-01-09T01:31:20.403Z,101009.73
2019-01-09T01:34:07.093Z,101010.94
2019-01-09T01:36:56.937Z,101014.36
2019-01-09T01:39:46.868Z,101019.52
2019-01-09T01:42:54.832Z,101016.45
2019-01-09T01:45:43.731Z,101017.28
2019-01-09T01:48:36.537Z,101003.82
2019-01-09T01:51:20.161Z,101006.83
2019-01-09T01:53:51.676Z,101001.61
2019-01-09T01:56:38.240Z,101014.10
2019-01-09T01:59:21.820Z,101005.85
2019-01-09T02:02:09.962Z,101020.11
2019-01-09T02:04:44.744Z,101015.30
2019-01-09T02:07:18.811Z,101012.27
2019-01-09T02:09:52.983Z,101019.61
2019-01-09T02:12:45.958Z,101014.80
2019-01-09T02:15:20.385Z,101019.95
2019-01-09T02:17:57.491Z,101033.35
2019-01-09T02:20:28.992Z,101032.88
2019-01-09T02:23:09.371Z,101037.17
2019-01-09T02:25:52.684Z,101038.47
2019-01-09T02:28:42.539Z,101042.77
2019-01-09T02:31:47.227Z,101033.28
2019-01-09T02:34:15.785Z,101034.58
2019-01-09T02:36:44.228Z,101023.33
2019-01-09T02:39:15.445Z,101044.09
2019-01-09T02:41:43.867Z,101052.38
2019-01-09T02:44:12.401Z,101044.63
2019-01-09T02:46:40.898Z,101032.56
2019-01-09T02:49:09.671Z,101036.01
2019-01-09T02:51:38.185Z,101045.05
2019-01-09T02:54:06.709Z,101048.45
2019-01-09T02:56:35.147Z,101044.98
2019-01-09T02:59:03.837Z,101034.23
2019-01-09T03:01:32.324Z,101038.53
2019-01-09T03:04:00.837Z,101040.68
2019-01-09T03:06:29.416Z,101038.98
2019-01-09T03:08:57.926Z,101035.94
2019-01-09T03:11:26.629Z,101032.50
2019-01-09T03:13:55.107Z,101041.13
2019-01-09T03:16:23.658Z,101049.34
2019-01-09T03:18:52.079Z,101040.69
2019-01-09T03:21:22.460Z,101040.72
2019-01-09T03:23:50.862Z,101035.16
2019-01-09T03:26:19.414Z,101045.93
2019-01-09T03:28:48.155Z,101042.90
2019-01-09T03:31:16.626Z,101037.62
2019-01-09T03:33:45.242Z,101044.95
2019-01-09T03:36:13.749Z,101054.84
2019-01-09T03:38:42.404Z,101040.92
2019-01-09T03:41:10.852Z,101055.59
2019-01-09T03:43:39.561Z,101047.78
2019-01-09T03:46:08.152Z,101051.19
2019-01-09T03:48:36.694Z,101055.03
2019-01-09T03:51:05.232Z,101048.12
2019-01-09T03:53:33.647Z,101038.58
2019-01-09T03:56:02.276Z,101048.48
2019-01-09T03:58:30.847Z,101043.72
2019-01-09T04:00:59.301Z,101046.31
2019-01-09T04:03:27.816Z,101039.77
2019-01-09T04:05:56.368Z,101044.47
2019-01-09T04:08:24.845Z,101047.02
2019-01-09T04:10:53.377Z,101043.54
2019-01-09T04:13:22.096Z,101045.23
2019-01-09T04:15:50.713Z,101045.65
2019-01-09T04:18:19.278Z,101045.58
2019-01-09T04:20:47.713Z,101047.69
2019-01-09T04:23:16.225Z,101033.78
2019-01-09T04:25:44.762Z,101042.83
2019-01-09T04:28:13.336Z,101040.66
2019-01-09T04:30:41.917Z,101034.99
2019-01-09T04:33:10.524Z,101037.98
2019-01-09T04:35:39.111Z,101027.19
2019-01-09T04:38:07.550Z,101037.06
2019-01-09T04:40:36.221Z,101031.41
2019-01-09T04:43:04.745Z,101027.52
2019-01-09T04:45:33.243Z,101029.22
2019-01-09T04:48:01.799Z,101023.12
2019-01-09T04:50:30.347Z,101017.09
2019-01-09T04:52:58.866Z,101022.23
2019-01-09T04:55:27.280Z,101023.11
2019-01-09T04:57:55.961Z,101027.36
2019-01-09T05:00:24.558Z,101037.27
2019-01-09T05:02:53.088Z,101032.53
2019-01-09T05:05:21.591Z,101037.72
2019-01-09T05:07:50.107Z,101035.12
2019-01-09T05:10:18.561Z,101035.94
2019-01-09T05:12:46.981Z,101025.95
2019-01-09T05:15:15.667Z,101032.42
2019-01-09T05:17:44.117Z,101027.24
2019-01-09T05:20:12.755Z,101034.12
2019-01-09T05:22:41.722Z,101029.34
2019-01-09T05:25:11.880Z,101035.00
2019-01-09T05:27:40.378Z,101033.67
2019-01-09T05:30:09.042Z,101033.71
2019-01-09T05:32:37.555Z,101035.89
2019-01-09T05:35:06.138Z,101039.33
2019-01-09T05:37:34.692Z,101038.48
2019-01-09T05:40:06.193Z,101034.16
2019-01-09T05:42:34.607Z,101037.59
2019-01-09T05:45:03.046Z,101027.56
2019-01-09T05:47:31.470Z,101026.23
2019-01-09T05:49:59.938Z,101030.52
2019-01-09T05:52:28.395Z,101033.06
2019-01-09T05:54:57.089Z,101035.20
2019-01-09T05:57:25.487Z,101036.09
2019-01-09T05:59:54.004Z,101031.28
2019-01-09T06:02:22.424Z,101034.72
2019-01-09T06:04:50.863Z,101039.49
2019-01-09T06:07:19.394Z,101041.22
2019-01-09T06:09:47.852Z,101030.44
2019-01-09T06:12:16.282Z,101029.14
2019-01-09T06:14:44.713Z,101028.69
2019-01-09T06:17:13.175Z,101036.01
2019-01-09T06:19:41.596Z,101038.14
2019-01-09T06:22:10.603Z,101045.42
2019-01-09T06:24:39.010Z,101041.98
2019-01-09T06:27:07.455Z,101044.58
2019-01-09T06:29:35.955Z,101051.45
2019-01-09T06:32:04.471Z,101044.53
2019-01-09T06:34:33.532Z,101045.38
2019-01-09T06:37:01.985Z,101047.92
2019-01-09T06:39:30.558Z,101048.81
2019-01-09T06:41:59.490Z,101050.91
2019-01-09T06:44:27.901Z,101051.80
2019-01-09T06:46:56.599Z,101053.98
2019-01-09T06:49:25.019Z,101063.44
2019-01-09T06:51:53.460Z,101062.14
2019-01-09T06:54:21.906Z,101061.70
2019-01-09T06:56:50.383Z,101068.16
2019-01-09T06:59:19.107Z,101072.09
2019-01-09T07:01:47.556Z,101070.30
2019-01-09T07:04:16.075Z,101078.91
2019-01-09T07:06:44.498Z,101074.59
2019-01-09T07:09:13.125Z,101074.19
2019-01-09T07:11:41.562Z,101080.65
2019-01-09T07:14:10.089Z,101080.65
2019-01-09T07:16:38.587Z,101083.68
2019-01-09T07:19:07.117Z,101080.25
2019-01-09T07:21:35.611Z,101094.08
2019-01-09T07:24:04.243Z,101095.86
2019-01-09T07:26:32.745Z,101088.14
2019-01-09T07:29:01.192Z,101093.80
2019-01-09T07:31:29.737Z,101100.77
2019-01-09T07:33:59.240Z,101100.80
2019-01-09T07:36:27.789Z,101099.96
2019-01-09T07:38:56.219Z,101104.73
2019-01-09T07:41:24.654Z,101108.20
2019-01-09T07:43:53.064Z,101115.13
2019-01-09T07:46:21.503Z,101106.47
2019-01-09T07:48:49.927Z,101112.98
2019-01-09T07:51:18.395Z,101117.31
2019-01-09T07:53:46.869Z,101114.77
2019-01-09T07:56:15.329Z,101115.66
2019-01-09T07:58:43.735Z,101115.30
2019-01-09T08:01:12.182Z,101120.52
2019-01-09T08:03:40.593Z,101114.85
2019-01-09T08:06:09.212Z,101118.25
2019-01-09T08:08:37.639Z,101122.97
2019-01-09T08:11:06.248Z,101131.14
2019-01-09T08:13:34.661Z,101132.38
2019-01-09T08:16:03.169Z,101133.19
2019-01-09T08:18:31.588Z,101124.09
2019-01-09T08:21:05.271Z,101131.86
2019-01-09T08:23:30.270Z,101142.69
2019-01-09T08:25:59.230Z,101146.13
2019-01-09T08:28:27.639Z,101148.30
2019-01-09T08:30:56.092Z,101157.81
2019-01-09T08:33:24.500Z,101153.53
2019-01-09T08:35:52.955Z,101160.89
2019-01-09T08:38:21.443Z,101160.94
2019-01-09T08:40:50.248Z,101159.19
2019-01-09T08:43:18.757Z,101157.45
2019-01-09T08:45:47.278Z,101154.91
2019-01-09T08:48:15.741Z,101172.63
2019-01-09T08:50:44.146Z,101179.09
2019-01-09T08:53:12.781Z,101179.59
2019-01-09T08:55:41.300Z,101193.42
2019-01-09T08:58:09.744Z,101194.41
2019-01-09T09:00:38.158Z,101194.58
2019-01-09T09:03:06.908Z,101199.94
2019-01-09T09:05:35.344Z,101201.32
2019-01-09T09:08:11.984Z,101206.05
2019-01-09T09:10:34.336Z,101209.89
2019-01-09T09:13:02.848Z,101214.71
2019-01-09T09:15:31.295Z,101216.00
2019-01-09T09:17:59.742Z,101216.45
2019-01-09T09:20:28.217Z,101219.05
2019-01-09T09:22:56.666Z,101221.23
2019-01-09T09:25:25.072Z,101224.27
2019-01-09T09:27:53.904Z,101229.93
2019-01-09T09:30:22.474Z,101228.23
2019-01-09T09:32:51.206Z,101221.41
2019-01-09T09:35:19.770Z,101229.22
2019-01-09T09:37:48.176Z,101230.55
2019-01-09T09:40:19.375Z,101229.74
2019-01-09T09:42:47.872Z,101239.70
2019-01-09T09:45:16.546Z,101237.64
2019-01-09T09:47:45.011Z,101239.02
2019-01-09T09:50:15.994Z,101240.80
2019-01-09T09:52:44.564Z,101240.89
2019-01-09T09:55:13.406Z,101235.79
2019-01-09T09:57:41.817Z,101238.91
2019-01-09T10:00:13.314Z,101232.95
2019-01-09T10:02:41.720Z,101246.44
2019-01-09T10:05:10.323Z,101238.77
2019-01-09T10:07:38.816Z,101234.14
2019-01-09T10:10:10.572Z,101247.22
2019-01-09T10:12:39.058Z,101247.73
2019-01-09T10:15:13.323Z,101242.66
2019-01-09T10:17:42.148Z,101244.06
2019-01-09T10:20:15.829Z,101241.33
2019-01-09T10:22:45.259Z,101243.20
2019-01-09T10:25:13.849Z,101242.73
2019-01-09T10:27:42.341Z,101241.84
2019-01-09T10:30:14.293Z,101241.88
2019-01-09T10:32:42.724Z,101230.67
2019-01-09T10:35:11.462Z,101229.88
2019-01-09T10:37:40.065Z,101226.05
2019-01-09T10:40:11.927Z,101227.91
2019-01-09T10:42:40.462Z,101231.95
2019-01-09T10:45:12.093Z,101231.59
2019-01-09T10:47:40.529Z,101216.05
2019-01-09T10:50:12.199Z,101227.48
2019-01-09T10:52:40.679Z,101221.50
2019-01-09T10:55:11.244Z,101232.38
2019-01-09T10:57:39.730Z,101225.50
2019-01-09T11:00:11.204Z,101239.81
2019-01-09T11:02:39.736Z,101234.69
2019-01-09T11:05:10.329Z,101235.25
2019-01-09T11:07:38.784Z,101230.48
2019-01-09T11:10:10.262Z,101227.99
2019-01-09T11:12:38.754Z,101230.69
2019-01-09T11:15:08.919Z,101228.58
2019-01-09T11:17:37.598Z,101235.59
2019-01-09T11:20:09.098Z,101233.97
2019-01-09T11:22:37.563Z,101228.42
2019-01-09T11:25:09.058Z,101222.44
2019-01-09T11:27:37.504Z,101219.89
2019-01-09T11:30:08.989Z,101214.30
2019-01-09T11:32:37.919Z,101218.67
2019-01-09T11:35:09.538Z,101216.02
2019-01-09T11:37:39.721Z,101216.91
2019-01-09T11:40:10.776Z,101210.91
2019-01-09T11:42:39.295Z,101209.75
2019-01-09T11:45:10.847Z,101208.05
2019-01-09T11:47:39.371Z,101203.73
2019-01-09T11:50:10.942Z,101204.63
2019-01-09T11:52:39.358Z,101205.53
2019-01-09T11:55:09.937Z,101208.56
2019-01-09T11:57:38.553Z,101203.77
2019-01-09T12:00:10.066Z,101203.77
2019-01-09T12:02:38.555Z,101205.91
2019-01-09T12:05:08.456Z,101190.70
2019-01-09T12:07:36.970Z,101198.98
2019-01-09T12:10:11.662Z,101198.98
2019-01-09T12:12:40.332Z,101209.44
2019-01-09T12:15:11.247Z,101193.77
2019-01-09T12:17:39.889Z,101198.08
2019-01-09T12:20:11.404Z,101204.93
2019-01-09T12:22:40.088Z,101191.47
2019-01-09T12:25:09.973Z,101188.38
2019-01-09T12:27:38.396Z,101201.45
2019-01-09T12:30:21.658Z,101196.19
2019-01-09T12:32:50.168Z,101193.77
2019-01-09T12:35:18.714Z,101200.72
2019-01-09T12:37:47.289Z,101200.72
2019-01-09T12:40:16.116Z,101201.60
2019-01-09T12:42:44.555Z,101193.34
2019-01-09T12:45:17.363Z,101193.34
2019-01-09T12:47:46.020Z,101202.91
2019-01-09T12:50:20.224Z,101210.70
2019-01-09T12:52:49.013Z,101208.53
2019-01-09T12:55:17.518Z,101212.45
2019-01-09T12:57:46.090Z,101201.12
2019-01-09T13:00:20.079Z,101208.91
2019-01-09T13:02:49.428Z,101216.28
2019-01-09T13:05:18.183Z,101216.79
2019-01-09T13:07:47.006Z,101212.41
2019-01-09T13:10:15.562Z,101218.42
2019-01-09T13:12:44.152Z,101233.14
2019-01-09T13:15:13.032Z,101225.70
2019-01-09T13:17:41.461Z,101228.30
2019-01-09T13:20:12.530Z,101225.25
2019-01-09T13:22:41.327Z,101235.63
2019-01-09T13:25:11.175Z,101225.61
2019-01-09T13:27:39.756Z,101228.22
2019-01-09T13:30:13.753Z,101231.63
2019-01-09T13:32:42.350Z,101229.48
2019-01-09T13:35:11.345Z,101233.85
2019-01-09T13:37:39.794Z,101237.77
2019-01-09T13:40:14.135Z,101248.98
2019-01-09T13:42:42.711Z,101253.25
2019-01-09T13:45:14.189Z,101244.34
2019-01-09T13:47:43.077Z,101253.55
2019-01-09T13:50:14.156Z,101247.00
2019-01-09T13:52:42.700Z,101243.03
2019-01-09T13:55:13.147Z,101251.22
2019-01-09T13:57:41.633Z,101258.55
2019-01-09T14:00:21.251Z,101256.75
2019-01-09T14:02:49.835Z,101247.58
2019-01-09T14:05:18.551Z,101260.95
2019-01-09T14:07:48.747Z,101256.60
2019-01-09T14:10:19.529Z,101267.44
2019-01-09T14:12:48.475Z,101266.97
2019-01-09T14:15:19.711Z,101269.57
2019-01-09T14:17:48.478Z,101264.41
2019-01-09T14:20:17.476Z,101265.30
2019-01-09T14:22:46.874Z,101272.20
2019-01-09T14:25:16.890Z,101276.05
2019-01-09T14:27:45.548Z,101271.27
2019-01-09T14:30:21.851Z,101270.82
2019-01-09T14:32:50.441Z,101281.65
2019-01-09T14:35:18.956Z,101278.63
2019-01-09T14:37:47.559Z,101283.39
2019-01-09T14:40:18.479Z,101290.75
2019-01-09T14:42:47.002Z,101295.05
2019-01-09T14:45:16.902Z,101293.70
2019-01-09T14:47:45.429Z,101304.58
2019-01-09T14:50:19.178Z,101298.05
2019-01-09T14:52:47.678Z,101298.03
2019-01-09T14:55:16.476Z,101288.48
2019-01-09T14:57:45.678Z,101304.08
2019-01-09T15:00:20.180Z,101303.66
2019-01-09T15:02:48.863Z,101302.28
2019-01-09T15:05:17.634Z,101306.14
2019-01-09T15:07:46.424Z,101312.22
2019-01-09T15:10:19.841Z,101318.19
2019-01-09T15:12:48.500Z,101333.25
2019-01-09T15:15:17.961Z,101335.73
2019-01-09T15:17:46.910Z,101334.83
2019-01-09T15:20:17.265Z,101336.55
2019-01-09T15:22:45.779Z,101339.50
2019-01-09T15:25:15.349Z,101341.60
2019-01-09T15:27:43.935Z,101332.86
2019-01-09T15:30:20.916Z,101335.44
2019-01-09T15:32:49.615Z,101328.44
2019-01-09T15:35:18.047Z,101341.81
2019-01-09T15:37:46.648Z,101349.09
2019-01-09T15:40:20.828Z,101343.84
2019-01-09T15:42:50.135Z,101349.42
2019-01-09T15:45:18.691Z,101351.50
2019-01-09T15:47:47.272Z,101353.59
2019-01-09T15:50:24.054Z,101353.52
2019-01-09T15:52:52.660Z,101348.27
2019-01-09T15:55:21.866Z,101357.73
2019-01-09T15:57:54.368Z,101366.74
2019-01-09T16:00:28.090Z,101358.92
2019-01-09T16:02:56.706Z,101372.30
2019-01-09T16:05:25.868Z,101376.98
2019-01-09T16:07:54.472Z,101377.35
2019-01-09T16:10:24.009Z,101380.80
2019-01-09T16:12:52.485Z,101381.66
2019-01-09T16:15:21.076Z,101380.72
2019-01-09T16:17:49.746Z,101378.53
2019-01-09T16:20:19.949Z,101381.50
2019-01-09T16:22:48.532Z,101386.66
2019-01-09T16:25:17.054Z,101388.77
2019-01-09T16:27:45.607Z,101385.64
2019-01-09T16:30:34.206Z,101387.71
2019-01-09T16:32:59.646Z,101384.23
2019-01-09T16:35:30.956Z,101397.61
2019-01-09T16:37:59.593Z,101401.98
2019-01-09T16:40:28.223Z,101401.69
2019-01-09T16:42:56.744Z,101401.24
2019-01-09T16:45:25.265Z,101406.80
2019-01-09T16:47:53.784Z,101404.58
2019-01-09T16:50:23.668Z,101411.95
2019-01-09T16:52:52.155Z,101417.55
2019-01-09T16:55:20.759Z,101414.87
2019-01-09T16:57:49.346Z,101420.42
2019-01-09T17:00:20.864Z,101426.05
2019-01-09T17:02:49.982Z,101423.50
2019-01-09T17:05:18.937Z,101422.66
2019-01-09T17:07:47.609Z,101425.65
2019-01-09T17:10:17.489Z,101431.64
2019-01-09T17:12:46.041Z,101430.75
2019-01-09T17:15:18.757Z,101430.22
2019-01-09T17:17:47.762Z,101432.72
2019-01-09T17:20:19.185Z,101427.95
2019-01-09T17:22:47.770Z,101426.64
2019-01-09T17:25:16.359Z,101427.41
2019-01-09T17:27:45.046Z,101432.50
2019-01-09T17:30:19.117Z,101437.24
2019-01-09T17:32:47.710Z,101436.31
2019-01-09T17:35:16.194Z,101443.59
2019-01-09T17:37:44.820Z,101438.31
2019-01-09T17:40:16.295Z,101449.92
2019-01-09T17:42:44.945Z,101453.37
2019-01-09T17:45:14.134Z,101459.80
2019-01-09T17:47:43.111Z,101458.41
2019-01-09T17:50:23.260Z,101463.59
2019-01-09T17:52:51.855Z,101470.02
2019-01-09T17:55:20.382Z,101473.50
2019-01-09T17:57:48.891Z,101477.45
2019-01-09T18:00:20.431Z,101473.95
2019-01-09T18:02:49.045Z,101479.14
2019-01-09T18:05:17.897Z,101476.55
2019-01-09T18:07:46.437Z,101485.17
2019-01-09T18:10:23.381Z,101490.75
2019-01-09T18:12:51.929Z,101501.92
2019-01-09T18:15:22.403Z,101495.48
2019-01-09T18:17:51.200Z,101502.81
2019-01-09T18:20:21.721Z,101504.11
2019-01-09T18:22:50.597Z,101506.74
2019-01-09T18:25:21.496Z,101508.89
2019-01-09T18:27:50.019Z,101513.62
2019-01-09T18:30:21.479Z,101522.25
2019-01-09T18:32:52.945Z,101516.62
2019-01-09T18:35:33.411Z,101516.62
2019-01-09T18:38:32.420Z,101527.39
2019-01-09T18:41:24.569Z,101529.98
2019-01-09T18:43:58.924Z,101533.46
2019-01-09T18:46:53.188Z,101538.25
2019-01-09T18:49:42.955Z,101543.43
2019-01-09T18:52:17.284Z,101539.95
2019-01-09T18:54:45.849Z,101543.83
2019-01-09T18:57:14.351Z,101540.34
2019-01-09T18:59:42.938Z,101550.26
2019-01-09T19:02:11.733Z,101549.41
2019-01-09T19:04:40.581Z,101558.08
2019-01-09T19:07:09.259Z,101559.78
2019-01-09T19:09:37.766Z,101562.36
2019-01-09T19:12:06.700Z,101558.87
2019-01-09T19:14:35.793Z,101564.84
2019-01-09T19:17:05.018Z,101560.46
2019-01-09T19:19:34.140Z,101572.13
2019-01-09T19:22:02.763Z,101565.23
2019-01-09T19:24:31.320Z,101566.03
2019-01-09T19:26:59.952Z,101573.31
2019-01-09T19:29:28.522Z,101569.41
2019-01-09T19:31:57.153Z,101570.22
2019-01-09T19:34:25.732Z,101580.57
2019-01-09T19:36:54.172Z,101571.00
2019-01-09T19:39:22.791Z,101578.33
2019-01-09T19:41:51.280Z,101573.98
2019-01-09T19:44:19.863Z,101580.52
2019-01-09T19:46:48.422Z,101573.55
2019-01-09T19:49:17.059Z,101580.87
2019-01-09T19:51:45.852Z,101584.34
2019-01-09T19:54:14.550Z,101582.62
2019-01-09T19:56:43.097Z,101580.52
2019-01-09T19:59:11.770Z,101587.28
2019-01-09T20:01:40.273Z,101584.24
2019-01-09T20:04:08.887Z,101592.51
2019-01-09T20:06:37.478Z,101591.11
2019-01-09T20:09:08.373Z,101590.27
2019-01-09T20:11:37.067Z,101594.09
2019-01-09T20:14:05.860Z,101593.24
2019-01-09T20:16:34.439Z,101602.77
2019-01-09T20:19:03.137Z,101601.52
2019-01-09T20:21:31.776Z,101600.67
2019-01-09T20:24:00.575Z,101608.39
2019-01-09T20:26:29.049Z,101607.50
2019-01-09T20:28:57.581Z,101607.15
2019-01-09T20:31:26.217Z,101610.64
2019-01-09T20:33:54.899Z,101616.66
2019-01-09T20:36:23.651Z,101624.45
2019-01-09T20:38:52.408Z,101614.64
2019-01-09T20:41:21.133Z,101629.73
2019-01-09T20:43:49.659Z,101631.84
2019-01-09T20:46:18.249Z,101632.61
2019-01-09T20:48:46.762Z,101635.09
2019-01-09T20:51:15.490Z,101638.96
2019-01-09T20:53:44.157Z,101638.45
2019-01-09T20:56:12.901Z,101642.34
2019-01-09T20:58:42.507Z,101643.59
2019-01-09T21:01:11.476Z,101648.30
2019-01-09T21:03:40.198Z,101650.84
2019-01-09T21:06:09.136Z,101648.13
2019-01-09T21:08:37.662Z,101646.72
2019-01-09T21:11:06.296Z,101653.13
2019-01-09T21:13:34.820Z,101650.03
2019-01-09T21:16:03.635Z,101651.26
2019-01-09T21:18:32.184Z,101654.70
2019-01-09T21:21:00.773Z,101647.37
2019-01-09T21:23:29.442Z,101657.67
2019-01-09T21:25:59.744Z,101659.80
2019-01-09T21:28:28.412Z,101659.34
2019-01-09T21:30:56.901Z,101658.39
2019-01-09T21:33:25.506Z,101666.53
2019-01-09T21:35:54.085Z,101672.52
2019-01-09T21:38:22.623Z,101672.95
2019-01-09T21:40:52.776Z,101675.94
2019-01-09T21:43:21.392Z,101678.96
2019-01-09T21:45:49.921Z,101673.61
2019-01-09T21:48:18.368Z,101677.36
2019-01-09T21:50:46.986Z,101677.75
2019-01-09T21:53:17.158Z,101677.27
2019-01-09T21:55:45.977Z,101672.45
2019-01-09T21:58:16.044Z,101677.55
2019-01-09T22:00:44.723Z,101670.56
2019-01-09T22:03:13.388Z,101676.94
2019-01-09T22:05:41.980Z,101685.03
2019-01-09T22:08:10.570Z,101688.33
2019-01-09T22:10:39.266Z,101695.63
2019-01-09T22:13:07.872Z,101699.83
2019-01-09T22:15:36.676Z,101704.49
2019-01-09T22:18:05.449Z,101704.03
2019-01-09T22:20:33.965Z,101713.09
2019-01-09T22:23:02.710Z,101712.69
2019-01-09T22:25:31.253Z,101710.45
2019-01-09T22:27:59.826Z,101717.75
2019-01-09T22:30:28.982Z,101720.20
2019-01-09T22:32:57.711Z,101717.13
2019-01-09T22:35:26.253Z,101712.81
2019-01-09T22:37:54.747Z,101712.50
2019-01-09T22:40:23.560Z,101718.27
2019-01-09T22:42:52.235Z,101720.07
2019-01-09T22:45:20.964Z,101720.91
2019-01-09T22:47:49.541Z,101720.53
2019-01-09T22:50:20.169Z,101724.48
2019-01-09T22:52:48.844Z,101726.22
2019-01-09T22:55:17.324Z,101727.02
2019-01-09T22:57:46.018Z,101731.73
2019-01-09T23:00:37.613Z,101733.08
2019-01-09T23:03:09.688Z,101730.55
2019-01-09T23:05:38.558Z,101720.15
2019-01-09T23:08:07.224Z,101721.44
2019-01-09T23:10:36.270Z,101728.29
2019-01-09T23:13:05.162Z,101737.66
2019-01-09T23:15:34.120Z,101738.28
2019-01-09T23:18:02.843Z,101740.30
2019-01-09T23:20:31.440Z,101740.30
2019-01-09T23:23:00.007Z,101739.52
2019-01-09T23:25:28.594Z,101738.22
2019-01-09T23:27:57.114Z,101741.38
2019-01-09T23:30:25.812Z,101748.79
2019-01-09T23:32:54.427Z,101750.22
2019-01-09T23:35:22.967Z,101752.08
2019-01-09T23:37:51.562Z,101757.28
2019-01-09T23:40:20.118Z,101759.03
2019-01-09T23:42:49.187Z,101752.48
2019-01-09T23:45:17.848Z,101754.08
2019-01-09T23:47:46.479Z,101760.95
2019-01-09T23:50:15.190Z,101762.18
2019-01-09T23:52:46.579Z,101759.95
2019-01-09T23:55:15.181Z,101760.66
2019-01-09T23:57:43.727Z,101758.45
